Time;durP1;ratioP1;P1;durP2;ratioP2;P2;SDS_P1;SDS_P2;PMS_P1;PMS_P2;Temp;Humidity;BMP_temperature;BMP_pressure;BME280_temperature;BME280_humidity;BME280_pressure;Samples;Min_cycle;Max_cycle;Signal;HPM_P1;HPM_P2
2023/04/26 00:00:46;;;;;;;24.60;12.60;;;5.30;99.90;;;;;;5033573;28;20053;-92
2023/04/26 00:03:34;;;;;;;22.27;12.52;;;5.30;99.90;;;;;;5040726;28;20034;-91
2023/04/26 00:06:22;;;;;;;18.83;12.30;;;5.30;99.90;;;;;;5046950;28;20124;-91
2023/04/26 00:09:09;;;;;;;18.30;11.75;;;5.20;99.90;;;;;;5038644;28;20052;-91
2023/04/26 00:12:00;;;;;;;19.90;11.30;;;5.20;99.90;;;;;;5041207;28;20216;-92
2023/04/26 00:14:48;;;;;;;14.93;9.70;;;5.20;27.10;;;;;;5043943;28;20095;-92
2023/04/26 00:17:41;;;;;;;16.75;10.60;;;5.20;1.00;;;;;;5044882;28;20052;-91
2023/04/26 00:20:29;;;;;;;20.48;10.75;;;5.10;99.90;;;;;;5030954;28;20044;-90
2023/04/26 00:23:17;;;;;;;20.00;10.43;;;5.10;1.00;;;;;;5031270;28;20049;-91
2023/04/26 00:26:05;;;;;;;19.65;9.60;;;5.00;8.30;;;;;;5057879;28;20068;-90
2023/04/26 00:28:58;;;;;;;21.75;10.52;;;5.00;99.90;;;;;;5055419;28;20176;-91
2023/04/26 00:31:49;;;;;;;17.77;9.05;;;5.10;1.00;;;;;;5045592;28;20167;-91
2023/04/26 00:34:39;;;;;;;17.90;9.93;;;5.10;99.90;;;;;;5035171;28;20045;-89
2023/04/26 00:37:27;;;;;;;14.55;8.52;;;5.10;99.90;;;;;;5039924;28;20060;-91
2023/04/26 00:40:15;;;;;;;18.88;9.43;;;5.00;7.20;;;;;;5057565;28;20257;-90
2023/04/26 00:43:07;;;;;;;24.50;9.02;;;5.00;1.00;;;;;;5042694;28;20485;-88
2023/04/26 00:45:54;;;;;;;14.50;9.43;;;5.00;99.90;;;;;;5042760;28;20040;-91
2023/04/26 00:48:41;;;;;;;17.83;10.40;;;5.00;99.90;;;;;;5035941;28;20118;-90
2023/04/26 00:51:31;;;;;;;21.85;10.00;;;5.00;99.90;;;;;;5060869;28;20045;-89
2023/04/26 00:54:20;;;;;;;20.42;9.68;;;4.90;99.90;;;;;;5046961;28;20109;-91
2023/04/26 00:57:08;;;;;;;15.77;9.43;;;4.90;1.00;;;;;;5048726;28;20428;-91
2023/04/26 00:59:55;;;;;;;19.85;11.05;;;4.90;99.90;;;;;;5053984;28;20056;-92
2023/04/26 01:02:43;;;;;;;19.40;10.35;;;4.90;99.90;;;;;;5053729;28;20041;-89
2023/04/26 01:05:31;;;;;;;29.05;11.35;;;4.90;99.90;;;;;;5031122;28;20049;-90
2023/04/26 01:08:19;;;;;;;21.50;10.98;;;4.80;1.00;;;;;;5031821;28;20172;-91
2023/04/26 01:11:07;;;;;;;16.30;9.73;;;4.90;19.40;;;;;;5050235;28;20128;-91
2023/04/26 01:13:56;;;;;;;19.80;9.65;;;4.90;92.80;;;;;;5062092;28;20048;-91
2023/04/26 01:16:45;;;;;;;14.85;9.60;;;4.90;99.90;;;;;;5044094;28;20044;-90
2023/04/26 01:19:36;;;;;;;13.82;9.70;;;4.90;99.90;;;;;;5040011;28;20754;-89
2023/04/26 01:22:23;;;;;;;20.98;10.52;;;4.80;99.90;;;;;;5058182;28;20045;-89
2023/04/26 01:25:11;;;;;;;16.83;9.65;;;4.80;99.90;;;;;;5039883;28;20037;-90
2023/04/26 01:27:59;;;;;;;26.73;11.30;;;4.70;29.60;;;;;;5053687;28;20087;-91
2023/04/26 01:30:46;;;;;;;20.88;10.80;;;4.70;1.00;;;;;;5036277;28;20053;-89
2023/04/26 01:33:34;;;;;;;18.05;10.77;;;4.60;1.00;;;;;;5058438;28;20041;-88
2023/04/26 01:36:21;;;;;;;18.27;9.88;;;4.50;1.00;;;;;;5058744;28;20514;-90
2023/04/26 01:39:09;;;;;;;23.20;10.98;;;4.50;99.90;;;;;;5041709;28;20080;-88
2023/04/26 01:41:57;;;;;;;20.33;12.32;;;4.50;1.00;;;;;;5036944;28;20060;-88
2023/04/26 01:44:45;;;;;;;24.65;12.13;;;4.60;99.90;;;;;;5038269;28;20049;-89
2023/04/26 01:47:32;;;;;;;19.85;12.32;;;4.60;2.10;;;;;;5042371;28;20183;-90
2023/04/26 01:50:19;;;;;;;24.48;13.05;;;4.60;99.90;;;;;;5043192;28;20067;-89
2023/04/26 01:53:07;;;;;;;26.17;13.77;;;4.60;99.90;;;;;;5049010;28;20053;-91
2023/04/26 01:55:55;;;;;;;29.63;14.77;;;4.50;1.00;;;;;;5048389;28;20045;-90
2023/04/26 01:58:42;;;;;;;26.23;12.57;;;4.50;1.00;;;;;;5037477;28;20139;-92
2023/04/26 02:01:30;;;;;;;26.20;12.90;;;4.50;99.90;;;;;;5054659;28;20045;-90
2023/04/26 02:04:17;;;;;;;23.00;13.27;;;4.30;99.90;;;;;;5052696;28;20052;-90
2023/04/26 02:07:05;;;;;;;21.85;12.18;;;4.30;1.00;;;;;;5035843;28;20056;-89
2023/04/26 02:09:53;;;;;;;24.88;11.50;;;4.20;99.90;;;;;;5037100;28;20052;-90
2023/04/26 02:12:40;;;;;;;22.88;11.90;;;4.20;1.00;;;;;;5046969;28;20061;-88
2023/04/26 02:15:28;;;;;;;29.77;11.68;;;4.10;99.90;;;;;;5050690;28;20059;-90
2023/04/26 02:18:16;;;;;;;23.02;11.75;;;4.10;1.00;;;;;;5037386;28;20048;-89
2023/04/26 02:21:09;;;;;;;21.77;11.00;;;4.00;99.90;;;;;;5057305;28;20041;-91
2023/04/26 02:23:56;;;;;;;21.35;12.02;;;4.00;99.90;;;;;;5040954;28;20067;-92
2023/04/26 02:26:44;;;;;;;21.88;11.85;;;4.00;99.90;;;;;;5039552;28;20107;-89
2023/04/26 02:29:31;;;;;;;24.17;11.85;;;4.00;1.00;;;;;;5053113;28;20418;-90
2023/04/26 02:32:30;;;;;;;17.25;11.45;;;4.00;1.00;;;;;;5035245;28;20118;-91
2023/04/26 02:35:18;;;;;;;28.80;12.05;;;4.00;99.90;;;;;;5068273;28;20383;-90
2023/04/26 02:38:06;;;;;;;24.60;10.35;;;3.90;99.90;;;;;;5059661;28;20049;-92
2023/04/26 02:41:03;;;;;;;25.02;10.45;;;3.90;99.90;;;;;;5063748;28;20048;-93
2023/04/26 02:43:51;;;;;;;19.75;9.50;;;3.90;99.90;;;;;;5038741;28;20057;-90
2023/04/26 02:46:38;;;;;;;19.67;9.50;;;3.90;99.90;;;;;;5037454;28;20052;-90
2023/04/26 02:49:25;;;;;;;18.77;10.00;;;3.90;99.90;;;;;;5038592;28;20045;-90
2023/04/26 02:52:12;;;;;;;16.75;10.43;;;3.90;99.90;;;;;;5029623;28;20091;-93
2023/04/26 02:55:01;;;;;;;24.23;10.50;;;3.80;1.00;;;;;;5036390;28;20054;-91
2023/04/26 02:57:48;;;;;;;24.23;11.02;;;3.80;1.00;;;;;;5040959;28;20334;-92
2023/04/26 03:00:45;;;;;;;22.35;11.45;;;3.80;1.00;;;;;;5042638;28;20071;-91
2023/04/26 03:03:32;;;;;;;20.30;11.27;;;3.90;1.00;;;;;;5036557;28;20037;-92
2023/04/26 03:06:20;;;;;;;20.50;12.25;;;3.90;1.00;;;;;;5044363;28;20081;-92
2023/04/26 03:09:07;;;;;;;21.77;11.70;;;4.00;1.00;;;;;;5046847;28;20068;-91
2023/04/26 03:11:55;;;;;;;20.80;11.77;;;4.00;1.00;;;;;;5033588;28;20041;-90
2023/04/26 03:14:42;;;;;;;20.92;12.73;;;4.10;45.70;;;;;;5046156;28;20479;-92
2023/04/26 03:17:31;;;;;;;22.00;12.27;;;4.00;99.90;;;;;;5053118;28;20050;-91
2023/04/26 03:20:19;;;;;;;18.95;11.82;;;4.00;99.90;;;;;;5060632;28;20388;-91
2023/04/26 03:23:10;;;;;;;22.13;12.35;;;3.90;99.90;;;;;;5044279;28;20064;-89
2023/04/26 03:25:57;;;;;;;22.35;12.43;;;3.90;1.00;;;;;;5043171;28;20045;-89
2023/04/26 03:28:47;;;;;;;19.88;11.55;;;3.70;1.00;;;;;;5038002;28;20052;-90
2023/04/26 03:31:34;;;;;;;26.30;12.52;;;3.70;99.90;;;;;;5039973;28;20053;-92
2023/04/26 03:34:22;;;;;;;24.35;12.48;;;3.60;99.90;;;;;;5037019;28;20187;-89
2023/04/26 03:37:12;;;;;;;22.95;12.48;;;3.60;1.00;;;;;;5040885;28;20055;-91
2023/04/26 03:40:00;;;;;;;30.73;13.15;;;3.50;1.00;;;;;;5056063;28;20060;-91
2023/04/26 03:42:47;;;;;;;25.95;13.07;;;3.40;65.70;;;;;;5042966;28;20318;-89
2023/04/26 03:45:36;;;;;;;27.88;13.70;;;3.20;99.90;;;;;;5058220;28;20464;-92
2023/04/26 03:48:23;;;;;;;23.38;11.32;;;3.10;99.90;;;;;;5038202;28;20041;-90
2023/04/26 03:51:10;;;;;;;26.73;13.30;;;3.00;99.90;;;;;;5036700;28;20072;-91
2023/04/26 03:53:58;;;;;;;28.95;14.13;;;2.80;99.90;;;;;;5036569;28;20523;-89
2023/04/26 03:56:45;;;;;;;28.88;13.73;;;2.70;1.00;;;;;;5035386;28;20049;-91
2023/04/26 03:59:33;;;;;;;25.88;13.93;;;2.60;1.00;;;;;;5043802;28;20056;-91
2023/04/26 04:06:27;;;;;;;28.10;13.70;;;2.40;99.90;;;;;;5046821;28;20021;-90
2023/04/26 04:09:18;;;;;;;27.38;14.57;;;2.30;1.00;;;;;;5055101;28;20387;-91
2023/04/26 04:12:10;;;;;;;26.95;14.55;;;2.30;1.00;;;;;;5035762;28;20045;-91
2023/04/26 04:14:57;;;;;;;34.25;15.00;;;2.30;98.10;;;;;;5033783;28;20045;-89
2023/04/26 04:17:45;;;;;;;39.00;20.65;;;2.40;99.90;;;;;;5038824;28;20148;-90
2023/04/26 04:20:33;;;;;;;33.83;18.35;;;2.60;99.90;;;;;;5040051;28;20060;-91
2023/04/26 04:23:20;;;;;;;29.73;17.63;;;2.70;99.90;;;;;;5051602;28;20080;-90
2023/04/26 04:26:08;;;;;;;37.65;18.73;;;2.70;99.90;;;;;;5052318;28;20120;-89
2023/04/26 04:28:57;;;;;;;31.92;15.93;;;2.70;99.90;;;;;;5036164;28;20048;-88
2023/04/26 04:31:46;;;;;;;27.27;16.05;;;2.70;99.90;;;;;;5032025;28;20049;-91
2023/04/26 04:34:35;;;;;;;33.83;17.42;;;2.70;99.90;;;;;;5039334;28;20124;-90
2023/04/26 04:37:22;;;;;;;38.72;18.15;;;2.70;99.90;;;;;;5047851;28;20041;-90
2023/04/26 04:40:10;;;;;;;35.67;19.25;;;2.80;99.90;;;;;;5056354;28;20411;-92
2023/04/26 04:43:01;;;;;;;36.15;19.63;;;3.00;99.90;;;;;;5047885;28;20055;-90
2023/04/26 04:45:48;;;;;;;37.03;19.65;;;3.00;99.90;;;;;;5038203;28;20092;-91
2023/04/26 04:48:37;;;;;;;37.45;21.58;;;3.20;99.90;;;;;;5043596;28;20052;-90
2023/04/26 04:51:24;;;;;;;45.22;21.38;;;3.30;99.90;;;;;;5041037;28;20144;-90
2023/04/26 04:54:13;;;;;;;43.78;22.60;;;3.40;99.90;;;;;;5037293;28;20048;-90
2023/04/26 04:57:04;;;;;;;44.45;24.02;;;3.50;99.90;;;;;;5058309;28;20060;-90
2023/04/26 04:59:54;;;;;;;44.60;25.13;;;3.50;99.90;;;;;;5025662;28;20084;-92
2023/04/26 05:02:43;;;;;;;45.33;23.02;;;3.60;99.90;;;;;;5042794;28;20040;-91
2023/04/26 05:05:31;;;;;;;40.28;23.38;;;3.70;99.90;;;;;;5043550;28;20110;-88
2023/04/26 05:08:18;;;;;;;45.05;22.25;;;3.70;99.90;;;;;;5050033;28;20706;-83
2023/04/26 05:11:05;;;;;;;42.05;20.85;;;3.70;99.90;;;;;;5054523;28;20052;-83
2023/04/26 05:13:53;;;;;;;41.42;22.23;;;3.70;99.90;;;;;;5063198;28;20045;-83
2023/04/26 05:16:41;;;;;;;37.45;20.45;;;3.80;99.90;;;;;;5057013;28;20530;-82
2023/04/26 05:19:28;;;;;;;35.35;18.67;;;3.80;99.90;;;;;;5051988;28;20132;-83
2023/04/26 05:22:17;;;;;;;38.65;20.08;;;3.80;99.90;;;;;;5049939;28;20049;-89
2023/04/26 05:25:10;;;;;;;27.75;15.00;;;3.90;99.90;;;;;;5052377;28;20407;-88
2023/04/26 05:28:11;;;;;;;32.60;20.02;;;4.00;99.90;;;;;;5040283;28;20037;-90
2023/04/26 05:31:00;;;;;;;35.95;19.63;;;4.00;99.90;;;;;;5042570;28;20531;-88
2023/04/26 05:33:48;;;;;;;38.05;19.00;;;4.10;99.90;;;;;;5038093;28;20067;-88
2023/04/26 05:36:39;;;;;;;36.58;18.90;;;4.20;99.90;;;;;;5071608;28;20051;-88
2023/04/26 05:39:27;;;;;;;33.88;18.40;;;4.30;99.90;;;;;;5054030;28;20045;-88
2023/04/26 05:42:15;;;;;;;34.95;18.15;;;4.50;99.90;;;;;;5043095;28;20033;-91
2023/04/26 05:45:04;;;;;;;32.42;18.80;;;4.50;99.90;;;;;;5038646;28;20041;-88
2023/04/26 05:47:54;;;;;;;29.35;18.35;;;4.70;99.90;;;;;;5021993;28;20059;-88
2023/04/26 05:50:42;;;;;;;35.17;18.77;;;4.80;99.90;;;;;;5048216;28;20037;-88
2023/04/26 06:02:02;;;;;;;20.67;13.70;;;5.50;99.90;;;;;;4976499;28;20053;-90
2023/04/26 06:14:37;;;;;;;23.40;11.77;;;6.00;99.90;;;;;;4842827;29;20045;-90
2023/04/26 06:17:26;;;;;;;23.90;11.50;;;6.40;58.50;;;;;;4816119;29;20050;-90
2023/04/26 06:21:26;;;;;;;;;;;;;;;;;;;;;
2023/04/26 06:28:41;;;;;;;13.90;8.77;;;6.60;1.00;;;;;;4829806;29;20046;-90
2023/04/26 06:32:36;;;;;;;;;;;;;;;;;;;;;
2023/04/26 07:18:15;;;;;;;;;;;;;;;;;;;;;
2023/04/26 07:25:30;;;;;;;10.60;4.13;;;9.30;99.90;;;;;;4996929;28;20508;-91
2023/04/26 07:29:23;;;;;;;9.57;3.55;;;9.60;99.90;;;;;;4963013;28;20054;-92
2023/04/26 08:00:59;;;;;;;7.70;3.75;;;11.40;99.90;;;;;;4875338;29;20030;-89
2023/04/26 08:33:14;;;;;;;;;;;;;;;;;;;;;
2023/04/26 08:36:37;;;;;;;11.02;4.65;;;12.70;68.00;;;;;;5054789;28;20049;-92
2023/04/26 08:43:57;;;;;;;14.02;4.95;;;11.70;58.20;;;;;;5044138;28;20044;-92
2023/04/26 08:51:19;;;;;;;16.25;4.80;;;11.60;56.50;;;;;;5032756;28;20033;-91
2023/04/26 09:07:30;;;;;;;12.68;5.28;;;9.70;43.70;;;;;;4954215;28;20385;-92
2023/04/26 09:31:39;;;;;;;10.77;3.80;;;11.60;39.80;;;;;;4900320;29;20039;-91
2023/04/26 09:34:46;;;;;;;10.32;4.43;;;11.90;40.40;;;;;;4903651;29;20051;-93
2023/04/26 09:42:07;;;;;;;11.57;4.13;;;13.60;37.90;;;;;;4936183;29;20043;-93
2023/04/26 09:45:31;;;;;;;9.25;4.15;;;13.70;27.80;;;;;;4932210;29;20071;-91
2023/04/26 09:49:08;;;;;;;10.07;3.75;;;14.00;34.50;;;;;;4932960;29;20051;-92
2023/04/26 09:53:21;;;;;;;7.72;3.42;;;14.40;24.20;;;;;;4940922;29;20048;-91
2023/04/26 09:56:43;;;;;;;8.75;3.60;;;13.00;18.70;;;;;;4944705;29;20035;-90
2023/04/26 10:08:26;;;;;;;8.75;3.67;;;11.40;19.60;;;;;;5030084;28;20029;-91
2023/04/26 10:44:15;;;;;;;10.00;3.67;;;11.50;17.50;;;;;;4943599;28;20039;-92
2023/04/26 10:52:14;;;;;;;10.50;4.50;;;13.00;35.20;;;;;;4940919;29;20059;-92
2023/04/26 10:55:49;;;;;;;7.15;3.40;;;14.90;39.30;;;;;;4996140;28;20042;-90
2023/04/26 11:03:18;;;;;;;8.13;3.47;;;17.40;21.00;;;;;;4960977;28;20066;-93
2023/04/26 11:14:35;;;;;;;3.67;2.28;;;18.40;14.40;;;;;;4970776;28;20046;-91
2023/04/26 11:17:58;;;;;;;3.47;1.67;;;18.30;4.10;;;;;;4949766;28;20056;-92
2023/04/26 11:54:46;;;;;;;4.80;1.83;;;16.40;1.00;;;;;;4856422;29;20053;-90
2023/04/26 12:05:56;;;;;;;4.05;1.95;;;20.20;10.00;;;;;;4907218;29;20049;-92
2023/04/26 12:08:59;;;;;;;4.30;1.73;;;20.50;22.20;;;;;;4909642;29;20049;-91
2023/04/26 12:41:00;;;;;;;3.85;1.70;;;19.30;1.00;;;;;;4886823;29;20017;-92
2023/04/26 12:44:33;;;;;;;6.30;2.28;;;19.30;1.00;;;;;;4945709;28;20044;-91
2023/04/26 13:00:22;;;;;;;2.97;1.67;;;17.40;1.00;;;;;;4978355;28;20029;-91
2023/04/26 13:03:41;;;;;;;5.88;2.38;;;18.90;1.00;;;;;;4965438;28;20039;-92
2023/04/26 13:06:38;;;;;;;3.75;1.67;;;19.70;1.00;;;;;;4983184;28;20047;-91
2023/04/26 13:14:03;;;;;;;5.70;2.25;;;20.70;1.00;;;;;;4971903;28;20035;-93
2023/04/26 13:21:32;;;;;;;5.35;2.22;;;18.40;1.00;;;;;;4922411;29;20036;-91
2023/04/26 13:24:52;;;;;;;;;;;;;;;;;;;;;
2023/04/26 13:36:43;;;;;;;3.70;2.47;;;15.80;1.00;;;;;;4982956;28;20049;-93
2023/04/26 13:43:55;;;;;;;4.22;2.15;;;17.30;1.00;;;;;;5008563;28;20393;-91
2023/04/26 13:52:07;;;;;;;4.75;2.20;;;16.50;1.00;;;;;;4822615;29;20049;-93
2023/04/26 13:55:11;;;;;;;4.78;2.20;;;17.10;1.00;;;;;;4896571;29;20054;-92
2023/04/26 13:58:43;;;;;;;4.22;2.45;;;18.80;1.00;;;;;;4886672;29;20056;-90
2023/04/26 14:02:25;;;;;;;4.68;2.40;;;19.70;1.00;;;;;;4902278;29;20047;-92
2023/04/26 14:05:37;;;;;;;6.80;2.50;;;19.00;1.00;;;;;;4955418;28;20046;-92
2023/04/26 14:12:43;;;;;;;3.28;1.80;;;19.30;1.00;;;;;;4972323;28;20039;-92
2023/04/26 14:15:30;;;;;;;6.15;1.85;;;18.20;1.00;;;;;;5018991;28;20145;-91
2023/04/26 14:18:18;;;;;;;3.92;1.88;;;18.10;1.00;;;;;;5026547;28;20041;-91
2023/04/26 14:21:05;;;;;;;4.60;2.13;;;18.20;1.00;;;;;;5034594;28;20756;-90
2023/04/26 14:23:55;;;;;;;4.45;2.33;;;18.20;1.00;;;;;;5028859;28;20052;-90
2023/04/26 14:39:49;;;;;;;8.07;2.60;;;16.10;1.00;;;;;;4935624;28;20068;-92
2023/04/26 14:42:59;;;;;;;7.65;2.92;;;15.70;1.00;;;;;;5031138;28;20049;-91
2023/04/26 14:46:07;;;;;;;3.72;2.20;;;15.60;1.00;;;;;;5034743;28;20160;-91
2023/04/26 14:48:54;;;;;;;5.65;2.35;;;15.90;1.00;;;;;;5019349;28;20061;-90
2023/04/26 14:52:04;;;;;;;;;;;;;;;;;;;;;
2023/04/26 14:55:23;;;;;;;4.97;2.80;;;16.00;1.00;;;;;;5044915;28;20053;-90
2023/04/26 14:59:09;;;;;;;6.38;2.80;;;15.60;1.00;;;;;;5040138;28;20049;-92
2023/04/26 15:02:45;;;;;;;5.75;2.35;;;15.50;1.00;;;;;;5036908;28;20041;-92
2023/04/26 15:05:38;;;;;;;6.85;2.10;;;17.90;1.00;;;;;;5040439;28;20425;-93
2023/04/26 15:08:27;;;;;;;2.92;1.92;;;20.00;1.00;;;;;;5040155;28;20128;-91
2023/04/26 15:11:17;;;;;;;6.05;1.95;;;21.40;1.00;;;;;;5044316;28;20087;-92
2023/04/26 15:14:25;;;;;;;3.70;1.60;;;21.30;1.00;;;;;;5028940;28;20416;-91
2023/04/26 15:17:13;;;;;;;4.88;1.90;;;22.50;1.00;;;;;;5012337;28;20068;-92
2023/04/26 15:24:09;;;;;;;4.00;2.10;;;20.40;1.00;;;;;;5034328;28;20034;-90
2023/04/26 15:26:56;;;;;;;3.42;1.60;;;19.70;1.00;;;;;;5030991;28;20056;-87
2023/04/26 15:29:44;;;;;;;4.82;1.98;;;19.80;1.00;;;;;;5032234;28;20037;-87
2023/04/26 15:32:38;;;;;;;4.65;2.10;;;20.40;1.00;;;;;;5030726;28;20353;-89
2023/04/26 15:35:25;;;;;;;3.90;2.10;;;20.20;1.00;;;;;;5015874;28;20045;-89
2023/04/26 15:38:18;;;;;;;4.18;1.80;;;20.90;1.00;;;;;;5015083;28;20116;-90
2023/04/26 15:41:05;;;;;;;6.50;2.25;;;21.00;1.00;;;;;;5017456;28;20048;-89
2023/04/26 15:44:03;;;;;;;5.72;1.90;;;20.40;1.00;;;;;;5016469;28;20037;-89
2023/04/26 15:47:00;;;;;;;7.20;2.10;;;20.00;1.00;;;;;;5022609;28;20080;-88
2023/04/26 15:50:24;;;;;;;4.28;1.95;;;18.90;1.00;;;;;;5026025;28;20053;-90
2023/04/26 15:53:17;;;;;;;2.72;1.80;;;18.60;1.00;;;;;;5030711;28;20127;-88
2023/04/26 15:56:15;;;;;;;6.10;1.90;;;20.00;1.00;;;;;;5032234;28;20052;-89
2023/04/26 15:59:50;;;;;;;7.43;2.17;;;20.60;1.00;;;;;;5034929;28;20041;-87
2023/04/26 16:02:56;;;;;;;6.28;2.05;;;21.20;1.00;;;;;;5012771;28;20042;-91
2023/04/26 16:10:40;;;;;;;4.68;2.15;;;19.50;1.00;;;;;;5038504;28;20037;-90
2023/04/26 16:17:47;;;;;;;15.82;5.72;;;17.10;1.00;;;;;;4936743;29;20068;-87
2023/04/26 16:20:35;;;;;;;7.82;4.18;;;16.90;1.00;;;;;;4968570;28;20049;-86
2023/04/26 16:23:22;;;;;;;7.07;3.55;;;17.30;1.00;;;;;;5022599;28;20045;-86
2023/04/26 16:26:09;;;;;;;11.52;4.35;;;17.90;1.00;;;;;;5030132;28;20778;-86
2023/04/26 16:28:57;;;;;;;7.90;3.20;;;18.00;1.00;;;;;;5020428;28;20049;-88
2023/04/26 16:31:46;;;;;;;6.88;2.88;;;16.80;1.00;;;;;;5025267;28;20361;-86
2023/04/26 16:34:36;;;;;;;5.60;2.80;;;15.80;1.00;;;;;;5020793;28;20056;-86
2023/04/26 16:37:24;;;;;;;6.60;2.15;;;15.20;1.00;;;;;;5021834;28;20095;-87
2023/04/26 16:43:51;;;;;;;11.32;4.93;;;14.10;1.00;;;;;;5017171;28;20048;-90
2023/04/26 16:46:39;;;;;;;7.07;3.80;;;13.60;1.00;;;;;;5037816;28;20334;-90
2023/04/26 16:50:03;;;;;;;8.73;4.45;;;13.40;1.00;;;;;;5017193;28;20038;-91
2023/04/26 16:53:11;;;;;;;8.43;2.50;;;13.00;1.00;;;;;;5023531;28;20046;-89
2023/04/26 16:56:08;;;;;;;5.75;3.00;;;12.70;1.00;;;;;;5024005;28;20136;-90
2023/04/26 16:59:16;;;;;;;6.18;2.65;;;12.60;1.00;;;;;;5036217;28;20077;-90
2023/04/26 17:06:15;;;;;;;9.40;4.00;;;12.30;1.00;;;;;;4968265;28;20092;-89
2023/04/26 17:09:07;;;;;;;6.28;3.33;;;12.10;1.00;;;;;;5017402;28;20041;-88
2023/04/26 17:11:55;;;;;;;8.13;3.08;;;11.90;1.00;;;;;;5030016;28;20045;-88
2023/04/26 17:15:20;;;;;;;6.68;3.45;;;11.70;1.00;;;;;;5021582;28;20056;-89
2023/04/26 17:18:10;;;;;;;6.72;2.65;;;11.50;1.00;;;;;;5012623;28;20041;-85
2023/04/26 17:20:57;;;;;;;10.85;3.20;;;11.20;1.00;;;;;;5025272;28;20060;-86
2023/04/26 17:23:45;;;;;;;7.28;3.30;;;11.10;1.00;;;;;;5028368;28;20124;-89
2023/04/26 17:26:32;;;;;;;8.57;3.75;;;11.00;1.00;;;;;;5011959;28;20298;-89
2023/04/26 17:29:20;;;;;;;7.93;3.03;;;10.80;1.00;;;;;;5016697;28;20405;-86
2023/04/26 17:32:08;;;;;;;10.30;3.88;;;10.70;1.00;;;;;;5013445;28;20063;-85
2023/04/26 17:34:56;;;;;;;9.40;3.17;;;10.50;1.00;;;;;;5021995;28;20038;-86
2023/04/26 17:37:48;;;;;;;6.68;3.47;;;10.40;1.00;;;;;;5009714;28;20159;-86
2023/04/26 17:40:36;;;;;;;6.30;2.88;;;10.30;1.00;;;;;;5013817;28;20056;-86
2023/04/26 17:43:23;;;;;;;8.85;3.53;;;10.20;1.00;;;;;;5025836;28;20068;-87
2023/04/26 17:46:11;;;;;;;6.65;3.13;;;10.20;1.00;;;;;;5025825;28;20037;-86
2023/04/26 17:48:58;;;;;;;9.90;3.13;;;10.10;1.00;;;;;;5016990;28;20874;-86
2023/04/26 17:51:46;;;;;;;8.93;3.38;;;10.10;1.00;;;;;;5032370;28;20076;-86
2023/04/26 17:54:33;;;;;;;6.25;3.08;;;10.00;1.00;;;;;;5015843;28;20591;-87
2023/04/26 17:57:22;;;;;;;12.13;3.28;;;9.90;1.00;;;;;;5029529;28;20134;-85
2023/04/26 18:00:16;;;;;;;12.77;3.53;;;9.80;1.00;;;;;;5015185;28;20061;-86
2023/04/26 18:03:12;;;;;;;6.45;2.85;;;9.70;1.00;;;;;;5030903;28;20116;-85
2023/04/26 18:06:00;;;;;;;6.38;3.28;;;9.60;1.00;;;;;;5010303;28;20472;-86
2023/04/26 18:08:47;;;;;;;5.85;3.08;;;9.50;1.00;;;;;;5026551;28;20536;-87
2023/04/26 18:11:38;;;;;;;7.13;2.75;;;9.40;1.00;;;;;;5035796;28;20049;-87
2023/04/26 18:14:27;;;;;;;6.53;2.95;;;9.40;1.00;;;;;;5020167;28;20049;-87
2023/04/26 18:17:15;;;;;;;6.82;3.03;;;9.30;1.00;;;;;;5008338;28;20057;-87
2023/04/26 18:20:06;;;;;;;5.22;3.10;;;9.30;3.00;;;;;;5018367;28;20049;-86
2023/04/26 18:22:56;;;;;;;4.45;2.80;;;9.30;5.40;;;;;;5012300;28;20543;-87
2023/04/26 18:25:45;;;;;;;7.25;2.67;;;9.30;8.70;;;;;;5013822;28;20429;-86
2023/04/26 18:28:38;;;;;;;11.73;3.20;;;9.30;13.10;;;;;;5015767;28;20084;-86
2023/04/26 18:31:25;;;;;;;5.70;2.92;;;9.30;12.90;;;;;;5030945;28;20041;-85
2023/04/26 18:34:13;;;;;;;6.82;2.85;;;9.30;14.20;;;;;;5021015;28;20057;-87
2023/04/26 18:37:01;;;;;;;4.60;2.90;;;9.20;14.20;;;;;;5035018;28;20045;-88
2023/04/26 18:39:49;;;;;;;8.68;3.47;;;9.10;15.20;;;;;;5022587;28;20188;-86
2023/04/26 18:42:37;;;;;;;9.70;3.58;;;9.00;20.90;;;;;;5024384;28;20053;-88
2023/04/26 18:45:26;;;;;;;10.68;3.30;;;8.90;23.00;;;;;;5024495;28;20167;-88
2023/04/26 18:48:16;;;;;;;12.65;3.58;;;8.90;30.70;;;;;;5026402;28;20046;-87
2023/04/26 18:51:03;;;;;;;8.60;2.80;;;8.80;34.50;;;;;;5025808;28;20045;-88
2023/04/26 18:53:52;;;;;;;7.32;2.92;;;8.80;40.60;;;;;;5029356;28;20453;-89
2023/04/26 18:56:40;;;;;;;7.10;2.67;;;8.80;49.80;;;;;;5034442;28;20113;-86
2023/04/26 18:59:27;;;;;;;7.60;3.03;;;8.70;49.30;;;;;;5027969;28;20058;-87
2023/04/26 19:02:15;;;;;;;6.03;2.75;;;8.70;53.80;;;;;;5032595;28;20144;-85
2023/04/26 19:05:03;;;;;;;10.82;3.72;;;8.70;52.40;;;;;;5034230;28;20364;-88
2023/04/26 19:07:52;;;;;;;7.22;3.30;;;8.70;60.00;;;;;;5021253;28;20057;-88
2023/04/26 19:10:40;;;;;;;8.10;3.03;;;8.70;65.70;;;;;;5029970;28;20045;-86
2023/04/26 19:13:28;;;;;;;9.48;3.15;;;8.70;72.70;;;;;;5018527;28;20061;-86
2023/04/26 19:16:16;;;;;;;8.68;3.38;;;8.70;65.30;;;;;;5029306;28;20466;-86
2023/04/26 19:19:04;;;;;;;7.82;2.78;;;8.60;66.20;;;;;;5029771;28;20132;-87
2023/04/26 19:21:52;;;;;;;8.10;3.38;;;8.60;79.80;;;;;;5029286;28;20041;-87
2023/04/26 19:24:40;;;;;;;11.10;3.08;;;8.60;69.80;;;;;;5032566;28;20056;-87
2023/04/26 19:27:28;;;;;;;11.32;3.17;;;8.60;66.20;;;;;;5034491;28;20042;-88
2023/04/26 19:30:15;;;;;;;11.50;2.88;;;8.60;59.30;;;;;;5022927;28;20081;-87
2023/04/26 19:33:03;;;;;;;4.82;2.70;;;8.60;71.40;;;;;;5018529;28;20045;-88
2023/04/26 19:35:51;;;;;;;11.35;3.78;;;8.60;75.60;;;;;;5033688;28;20057;-89
2023/04/26 19:38:40;;;;;;;5.97;2.80;;;8.50;87.10;;;;;;5037262;28;20053;-88
2023/04/26 19:41:28;;;;;;;11.40;2.97;;;8.50;91.80;;;;;;5035865;28;20046;-88
2023/04/26 19:44:15;;;;;;;6.72;2.90;;;8.50;92.10;;;;;;5038642;28;20430;-88
2023/04/26 19:47:03;;;;;;;7.55;2.90;;;8.50;94.50;;;;;;5031605;28;20060;-89
2023/04/26 19:49:51;;;;;;;8.45;2.85;;;8.50;87.00;;;;;;5018300;28;20046;-88
2023/04/26 19:52:39;;;;;;;9.75;2.70;;;8.50;87.10;;;;;;5035253;28;20041;-88
2023/04/26 19:55:28;;;;;;;8.32;3.00;;;8.50;84.00;;;;;;5036229;28;20119;-88
2023/04/26 19:58:15;;;;;;;9.02;3.50;;;8.50;79.80;;;;;;5015935;28;20145;-88
2023/04/26 20:01:04;;;;;;;9.88;3.20;;;8.50;87.30;;;;;;5020638;28;20071;-89
2023/04/26 20:03:52;;;;;;;10.30;3.58;;;8.50;77.80;;;;;;5020149;28;20387;-88
2023/04/26 20:06:40;;;;;;;10.07;4.63;;;8.50;83.10;;;;;;5027020;28;20049;-87
2023/04/26 20:09:27;;;;;;;12.68;6.10;;;8.40;89.90;;;;;;5030168;28;20124;-88
2023/04/26 20:12:19;;;;;;;7.97;3.83;;;8.40;99.90;;;;;;5020900;28;20128;-87
2023/04/26 20:15:11;;;;;;;10.68;3.95;;;8.30;99.90;;;;;;5026428;28;20380;-88
2023/04/26 20:18:00;;;;;;;;;;;8.40;98.90;;;;;;5015463;28;20168;-88
2023/04/26 20:20:50;;;;;;;6.25;3.30;;;8.40;91.30;;;;;;5027204;28;19921;-89
2023/04/26 20:23:38;;;;;;;5.75;3.08;;;8.40;85.10;;;;;;5032884;28;20042;-87
2023/04/26 20:26:25;;;;;;;7.55;3.58;;;8.40;86.30;;;;;;5028761;28;20064;-87
2023/04/26 20:29:14;;;;;;;11.93;3.00;;;8.30;89.60;;;;;;5022099;28;20060;-88
2023/04/26 20:32:02;;;;;;;10.27;3.63;;;8.30;84.10;;;;;;5014453;28;20116;-87
2023/04/26 20:34:50;;;;;;;7.22;4.47;;;8.30;85.80;;;;;;5020711;28;20053;-88
2023/04/26 20:37:38;;;;;;;12.43;3.85;;;8.20;97.10;;;;;;5030267;28;20080;-88
2023/04/26 20:40:26;;;;;;;8.30;4.10;;;8.10;99.90;;;;;;5031188;28;20491;-88
2023/04/26 20:43:14;;;;;;;9.57;4.75;;;8.10;99.90;;;;;;5022845;28;20041;-88
2023/04/26 20:46:04;;;;;;;7.10;4.15;;;8.10;97.30;;;;;;5025855;28;20061;-90
2023/04/26 20:48:52;;;;;;;10.25;4.65;;;8.10;92.90;;;;;;5034267;28;20044;-88
2023/04/26 20:51:42;;;;;;;9.75;4.00;;;8.00;92.70;;;;;;5037308;28;20060;-88
2023/04/26 20:54:30;;;;;;;8.38;3.40;;;7.90;98.30;;;;;;5035300;28;20192;-89
2023/04/26 20:57:18;;;;;;;12.48;3.50;;;7.90;99.90;;;;;;5044356;28;20045;-88
2023/04/26 21:00:06;;;;;;;9.10;4.30;;;7.90;98.10;;;;;;5023048;28;20408;-88
2023/04/26 21:02:54;;;;;;;15.90;6.50;;;7.80;98.20;;;;;;5032447;28;20440;-88
2023/04/26 21:05:41;;;;;;;10.00;4.20;;;7.80;99.90;;;;;;5023289;28;20128;-87
2023/04/26 21:08:31;;;;;;;10.23;4.57;;;7.70;99.90;;;;;;5021257;28;20049;-88
2023/04/26 21:11:21;;;;;;;12.32;4.03;;;7.60;99.90;;;;;;5035046;28;20046;-88
2023/04/26 21:14:12;;;;;;;8.35;3.40;;;7.50;99.90;;;;;;5015951;28;20055;-87
2023/04/26 21:17:00;;;;;;;7.40;3.55;;;7.40;99.90;;;;;;5021251;28;20045;-88
2023/04/26 21:19:47;;;;;;;11.20;3.90;;;7.30;99.90;;;;;;5036961;28;20050;-88
2023/04/26 21:22:34;;;;;;;5.45;3.67;;;7.20;99.90;;;;;;5044557;28;20057;-87
2023/04/26 21:25:21;;;;;;;7.57;4.13;;;7.20;99.90;;;;;;5036009;28;20065;-87
2023/04/26 21:28:09;;;;;;;9.60;4.47;;;7.10;99.90;;;;;;5043458;28;20064;-87
2023/04/26 21:31:06;;;;;;;17.20;8.48;;;7.20;99.90;;;;;;5052911;28;20064;-88
2023/04/26 21:33:55;;;;;;;14.00;6.80;;;7.20;99.90;;;;;;5039986;28;20045;-89
2023/04/26 21:36:42;;;;;;;10.15;5.43;;;7.20;99.90;;;;;;5011263;28;20065;-88
2023/04/26 21:39:30;;;;;;;12.77;5.72;;;7.20;99.90;;;;;;5019668;28;20041;-90